createdAt,value
2022-10-25T00:01:28.992Z,87.84
2022-10-25T00:06:31.347Z,88.29
2022-10-25T00:11:34.661Z,88.38
2022-10-25T00:16:38.051Z,88.95
2022-10-25T00:21:40.577Z,87.46
2022-10-25T00:26:43.475Z,88.40
2022-10-25T00:31:46.570Z,88.54
2022-10-25T00:36:48.725Z,88.15
2022-10-25T00:41:50.848Z,88.34
2022-10-25T00:46:53.995Z,88.50
2022-10-25T00:51:57.952Z,88.69
2022-10-25T00:57:04.039Z,88.63
2022-10-25T01:02:08.042Z,88.94
2022-10-25T01:07:10.219Z,89.34
2022-10-25T01:12:12.420Z,89.02
2022-10-25T01:17:15.371Z,89.35
2022-10-25T01:22:29.403Z,89.52
2022-10-25T01:27:52.154Z,89.24
2022-10-25T01:32:54.468Z,89.62
2022-10-25T01:38:02.989Z,90.27
2022-10-25T01:43:07.805Z,90.51
2022-10-25T01:48:14.450Z,90.19
2022-10-25T01:53:17.556Z,90.33
2022-10-25T01:58:34.778Z,90.48
2022-10-25T02:03:45.640Z,90.68
2022-10-25T02:08:51.979Z,90.62
2022-10-25T02:14:13.054Z,91.01
2022-10-25T02:19:24.074Z,91.09
2022-10-25T02:30:48.016Z,90.90
2022-10-25T02:36:09.105Z,91.75
2022-10-25T02:41:12.420Z,92.01
2022-10-25T02:46:16.359Z,91.61
2022-10-25T02:51:18.559Z,91.71
2022-10-25T02:56:21.803Z,91.24
2022-10-25T03:01:25.787Z,91.76
2022-10-25T03:06:28.079Z,91.89
2022-10-25T03:11:30.264Z,91.61
2022-10-25T03:16:32.430Z,91.70
2022-10-25T03:21:37.568Z,92.11
2022-10-25T03:26:42.987Z,91.08
2022-10-25T03:31:46.009Z,90.55
2022-10-25T03:36:48.137Z,91.55
2022-10-25T03:41:50.687Z,91.82
2022-10-25T03:46:53.528Z,90.72
2022-10-25T03:52:40.454Z,90.95
2022-10-25T03:57:42.594Z,90.98
2022-10-25T04:02:44.827Z,91.18
2022-10-25T04:07:47.362Z,91.71
2022-10-25T04:17:57.030Z,91.80
2022-10-25T04:22:59.205Z,92.06
2022-10-25T04:28:02.080Z,91.57
2022-10-25T04:33:04.342Z,91.78
2022-10-25T04:38:06.646Z,91.44
2022-10-25T04:43:09.476Z,91.29
2022-10-25T04:48:12.501Z,91.31
2022-10-25T04:53:14.728Z,90.83
2022-10-25T04:58:17.516Z,89.24
2022-10-25T05:03:20.056Z,89.69
2022-10-25T05:08:23.071Z,90.59
2022-10-25T05:13:25.301Z,90.99
2022-10-25T05:18:28.589Z,90.86
2022-10-25T05:23:30.946Z,91.13
2022-10-25T05:28:35.245Z,90.97
2022-10-25T05:33:37.498Z,91.59
2022-10-25T05:38:40.622Z,91.80
2022-10-25T05:43:43.315Z,91.74
2022-10-25T05:48:48.629Z,91.37
2022-10-25T06:00:13.108Z,90.47
2022-10-25T06:05:16.173Z,89.25
2022-10-25T06:16:41.500Z,87.68
2022-10-25T06:21:46.945Z,88.32
2022-10-25T06:26:51.870Z,87.36
2022-10-25T06:31:57.178Z,87.33
2022-10-25T06:57:43.311Z,82.87
2022-10-25T07:03:06.060Z,79.19
2022-10-25T07:14:20.658Z,76.65
2022-10-25T07:19:24.680Z,76.64
2022-10-25T07:24:26.925Z,77.05
2022-10-25T07:29:32.192Z,77.67
2022-10-25T07:34:46.063Z,78.24
2022-10-25T07:46:42.625Z,79.75
2022-10-25T07:51:45.087Z,78.34
2022-10-25T07:56:47.856Z,77.79
2022-10-25T08:01:51.305Z,78.12
2022-10-25T08:06:53.895Z,78.76
2022-10-25T08:11:58.192Z,78.41
2022-10-25T08:17:17.551Z,77.44
2022-10-25T08:22:28.873Z,78.46
2022-10-25T08:33:51.897Z,75.42
2022-10-25T08:45:49.267Z,74.69
2022-10-25T08:51:07.026Z,74.83
2022-10-25T08:56:26.433Z,73.98
2022-10-25T09:14:53.955Z,70.67
2022-10-25T09:20:02.155Z,69.66
2022-10-25T09:31:27.240Z,70.62
2022-10-25T09:36:33.207Z,69.23
2022-10-25T09:41:37.692Z,71.57
2022-10-25T09:52:22.738Z,71.33
2022-10-25T09:57:28.166Z,72.38
2022-10-25T10:08:59.881Z,74.54
2022-10-25T10:14:16.537Z,73.68
2022-10-25T10:19:21.659Z,72.21
2022-10-25T10:24:27.766Z,69.88
2022-10-25T17:53:13.357Z,84.63
2022-10-25T19:52:56.383Z,86.71
2022-10-25T21:00:02.428Z,89.25
